Itiuba, Brazil
Current Conditions -  °F | °C
As of 8:00 PM on Tuesday 25 Nov 2014 (Local Time) from SBPL Reporting Station
Clear Clear  
Wind Chill: 88°   Ceiling: Unl
Heat Index: 90°   Visibility: 6mi
Dew Point: 66°   Wind: 7mph
Humidity: 49%   Direction: 180°S
Pressure: 29.85"   Gusts: NA
Location:  10.69°S, 39.85°W
Report Text: SBPL 252300Z 18006KT CAVOK 31/19 Q1011
Loading
Personal Weather Stations






























Interactive Weather Map New forecast layout! Learn more

10-Day Weather Forecast

Advertisements
Track Severe Weather on mobile